createdAt,value
2022-10-03T00:01:59.235Z,6.37
2022-10-03T00:05:08.079Z,6.13
2022-10-03T00:07:40.615Z,6.30
2022-10-03T00:10:31.490Z,6.33
2022-10-03T00:13:21.173Z,6.97
2022-10-03T00:15:52.001Z,7.07
2022-10-03T00:18:41.113Z,7.43
2022-10-03T00:21:07.923Z,9.10
2022-10-03T00:23:35.843Z,7.43
2022-10-03T00:26:22.508Z,8.90
2022-10-03T00:29:18.505Z,9.37
2022-10-03T00:32:00.292Z,10.43
2022-10-03T00:34:33.994Z,7.97
2022-10-03T00:37:15.585Z,7.00
2022-10-03T00:39:57.647Z,7.60
2022-10-03T00:42:37.145Z,7.23
2022-10-03T00:45:40.538Z,8.10
2022-10-03T00:48:20.130Z,7.87
2022-10-03T00:50:52.813Z,8.70
2022-10-03T00:53:41.597Z,7.87
2022-10-03T00:56:17.269Z,7.70
2022-10-03T00:58:58.992Z,8.07
2022-10-03T01:01:28.908Z,7.20
2022-10-03T01:04:34.079Z,7.10
2022-10-03T01:07:39.109Z,8.77
2022-10-03T01:10:05.884Z,7.53
2022-10-03T01:12:44.890Z,7.60
2022-10-03T01:15:27.584Z,6.33
2022-10-03T01:18:14.050Z,7.17
2022-10-03T01:20:59.465Z,9.53
2022-10-03T01:23:55.010Z,8.63
2022-10-03T01:26:48.734Z,8.03
2022-10-03T01:30:25.142Z,7.30
2022-10-03T01:33:02.967Z,7.73
2022-10-03T01:35:53.765Z,9.70
2022-10-03T01:38:20.821Z,8.03
2022-10-03T01:41:26.496Z,8.43
2022-10-03T01:44:12.864Z,7.83
2022-10-03T01:46:53.651Z,8.63
2022-10-03T01:49:43.862Z,8.63
2022-10-03T01:52:19.060Z,8.53
2022-10-03T01:55:15.063Z,8.87
2022-10-03T01:58:01.210Z,9.67
2022-10-03T02:00:34.726Z,8.97
2022-10-03T02:03:43.403Z,9.40
2022-10-03T02:06:21.423Z,8.77
2022-10-03T02:08:56.942Z,9.93
2022-10-03T02:11:40.001Z,9.23
2022-10-03T02:14:24.808Z,11.17
2022-10-03T02:17:13.087Z,8.23
2022-10-03T02:19:47.261Z,11.27
2022-10-03T02:22:28.534Z,9.63
2022-10-03T02:25:33.301Z,8.63
2022-10-03T02:28:15.223Z,8.93
2022-10-03T02:31:00.528Z,10.03
2022-10-03T02:33:56.419Z,14.90
2022-10-03T02:36:43.408Z,8.53
2022-10-03T02:39:22.977Z,9.00
2022-10-03T02:42:08.240Z,9.70
2022-10-03T02:45:08.571Z,9.23
2022-10-03T02:48:19.864Z,11.03
2022-10-03T02:51:09.983Z,12.60
2022-10-03T02:53:57.029Z,10.77
2022-10-03T02:56:56.406Z,12.17
2022-10-03T02:59:51.298Z,10.60
2022-10-03T03:02:55.885Z,11.30
2022-10-03T03:05:47.076Z,13.73
2022-10-03T03:08:48.045Z,11.53
2022-10-03T03:11:20.567Z,11.17
2022-10-03T03:13:59.386Z,10.70
2022-10-03T03:16:57.779Z,12.37
2022-10-03T03:19:36.682Z,10.87
2022-10-03T03:22:25.371Z,11.47
2022-10-03T03:25:14.113Z,12.33
2022-10-03T03:28:03.328Z,11.03
2022-10-03T03:30:40.230Z,11.47
2022-10-03T03:33:26.547Z,11.43
2022-10-03T03:36:22.825Z,10.77
2022-10-03T03:39:04.276Z,10.63
2022-10-03T03:41:51.294Z,13.57
2022-10-03T03:45:00.962Z,12.10
2022-10-03T03:48:03.119Z,11.53
2022-10-03T03:51:11.609Z,13.70
2022-10-03T03:53:53.843Z,12.33
2022-10-03T03:57:01.368Z,14.13
2022-10-03T03:59:58.080Z,13.67
2022-10-03T04:02:38.445Z,11.53
2022-10-03T04:05:38.263Z,12.07
2022-10-03T04:08:21.193Z,12.43
2022-10-03T04:11:02.872Z,11.07
2022-10-03T04:14:07.503Z,11.60
2022-10-03T04:16:55.875Z,12.60
2022-10-03T04:19:34.546Z,11.90
2022-10-03T04:22:16.110Z,12.63
2022-10-03T04:24:54.270Z,12.17
2022-10-03T04:27:45.095Z,11.63
2022-10-03T04:30:17.654Z,11.27
2022-10-03T04:33:18.119Z,12.40
2022-10-03T04:36:06.544Z,11.77
2022-10-03T04:39:16.494Z,12.73
2022-10-03T04:42:01.477Z,19.93
2022-10-03T04:44:43.456Z,15.90
2022-10-03T04:47:39.378Z,12.40
2022-10-03T04:50:12.407Z,13.80
2022-10-03T04:52:47.844Z,12.50
2022-10-03T04:55:56.048Z,13.87
2022-10-03T04:58:56.493Z,14.77
2022-10-03T05:01:38.991Z,13.47
2022-10-03T05:04:18.115Z,14.53
2022-10-03T05:06:52.423Z,12.67
2022-10-03T05:09:26.541Z,15.00
2022-10-03T05:12:18.159Z,13.50
2022-10-03T05:14:58.827Z,13.73
2022-10-03T05:17:42.718Z,13.70
2022-10-03T05:20:24.015Z,21.67
2022-10-03T05:23:35.507Z,16.73
2022-10-03T05:26:45.547Z,12.80
2022-10-03T05:29:31.714Z,13.90
2022-10-03T05:32:21.644Z,12.27
2022-10-03T05:35:06.804Z,12.10
2022-10-03T05:37:52.134Z,13.03
2022-10-03T05:40:24.092Z,12.23
2022-10-03T05:42:53.652Z,12.80
2022-10-03T05:45:36.035Z,12.07
2022-10-03T05:48:15.184Z,13.57
2022-10-03T05:50:56.658Z,13.83
2022-10-03T05:53:55.455Z,15.90
2022-10-03T05:56:41.154Z,13.80
2022-10-03T05:59:52.765Z,15.57
2022-10-03T06:03:01.175Z,16.43
2022-10-03T06:05:43.500Z,16.57
2022-10-03T06:08:16.485Z,17.70
2022-10-03T06:10:56.254Z,14.67
2022-10-03T06:13:36.517Z,16.50
2022-10-03T06:16:41.115Z,15.57
2022-10-03T06:19:22.984Z,14.37
2022-10-03T06:22:27.078Z,15.57
2022-10-03T06:25:02.237Z,13.97
2022-10-03T06:27:55.997Z,16.00
2022-10-03T06:30:52.713Z,13.37
2022-10-03T06:33:56.343Z,18.00
2022-10-03T06:36:42.765Z,14.27
2022-10-03T06:40:04.194Z,14.33
2022-10-03T06:42:46.261Z,16.87
2022-10-03T06:45:22.049Z,15.00
2022-10-03T06:48:22.109Z,14.27
2022-10-03T06:51:39.048Z,14.90
2022-10-03T06:54:42.747Z,14.67
2022-10-03T06:57:37.594Z,16.33
2022-10-03T07:00:22.375Z,17.67
2022-10-03T07:03:01.979Z,20.13
2022-10-03T07:06:06.530Z,16.50
2022-10-03T07:09:01.771Z,18.40
2022-10-03T07:12:05.521Z,16.23
2022-10-03T07:14:41.738Z,15.27
2022-10-03T07:17:18.976Z,16.20
2022-10-03T07:20:04.578Z,15.37
2022-10-03T07:22:49.406Z,14.33
2022-10-03T07:25:35.062Z,13.30
2022-10-03T07:28:39.908Z,14.80
2022-10-03T07:31:25.889Z,13.87
2022-10-03T07:34:13.999Z,13.90
2022-10-03T07:37:27.640Z,15.20
2022-10-03T07:40:19.002Z,16.20
2022-10-03T07:43:10.608Z,12.30
2022-10-03T07:46:15.950Z,14.43
2022-10-03T07:49:01.697Z,12.00
2022-10-03T07:52:08.222Z,12.73
2022-10-03T07:54:58.725Z,11.93
2022-10-03T07:57:38.105Z,11.53
2022-10-03T08:00:13.699Z,12.53
2022-10-03T08:03:05.365Z,11.47
2022-10-03T08:06:10.088Z,12.53
2022-10-03T08:09:15.325Z,13.00
2022-10-03T08:12:03.411Z,12.37
2022-10-03T08:14:57.961Z,9.93
2022-10-03T08:18:03.306Z,9.73
2022-10-03T08:20:30.004Z,7.13
2022-10-03T08:23:31.998Z,9.53
2022-10-03T08:26:08.348Z,7.23
2022-10-03T08:28:46.635Z,10.30
2022-10-03T08:31:37.442Z,7.40
2022-10-03T08:34:25.627Z,8.53
2022-10-03T08:37:13.233Z,10.03
2022-10-03T08:40:07.775Z,5.70
2022-10-03T08:42:55.905Z,8.93
2022-10-03T08:45:28.883Z,8.90
2022-10-03T08:48:19.599Z,12.10
2022-10-03T08:51:17.624Z,7.50
2022-10-03T08:54:09.856Z,6.43
2022-10-03T08:57:06.403Z,8.90
2022-10-03T08:59:33.319Z,4.77
2022-10-03T09:02:46.601Z,6.60
2022-10-03T09:05:44.484Z,11.90
2022-10-03T09:08:20.067Z,8.23
2022-10-03T09:11:14.326Z,11.50
2022-10-03T09:14:12.137Z,11.90
2022-10-03T09:17:01.579Z,6.63
2022-10-03T09:20:06.154Z,9.23
2022-10-03T09:22:32.985Z,8.90
2022-10-03T09:25:24.194Z,9.77
2022-10-03T09:28:13.084Z,7.17
2022-10-03T09:30:52.784Z,8.83
2022-10-03T09:33:55.811Z,8.33
2022-10-03T09:36:31.513Z,8.43
2022-10-03T09:39:16.266Z,9.27
2022-10-03T09:42:04.797Z,6.93
2022-10-03T09:45:08.453Z,8.43
2022-10-03T09:48:11.838Z,11.97
2022-10-03T09:51:01.632Z,10.93
2022-10-03T09:53:35.598Z,10.77
2022-10-03T09:56:32.967Z,6.23
2022-10-03T09:59:26.479Z,8.30
2022-10-03T10:02:24.127Z,7.53
2022-10-03T10:05:25.634Z,5.83
2022-10-03T10:08:11.385Z,9.67
2022-10-03T10:10:59.905Z,11.07
2022-10-03T10:14:06.832Z,6.67
2022-10-03T10:17:15.567Z,7.43
2022-10-03T10:19:45.158Z,8.23
2022-10-03T10:22:15.972Z,7.57
2022-10-03T10:25:09.772Z,9.67
2022-10-03T10:27:55.663Z,11.17
2022-10-03T10:30:30.990Z,14.70
2022-10-03T10:33:35.773Z,9.53
2022-10-03T10:36:39.542Z,7.17
2022-10-03T10:39:43.391Z,7.63
2022-10-03T10:43:01.611Z,5.03
2022-10-03T10:45:57.285Z,9.93
2022-10-03T10:48:45.494Z,7.03
2022-10-03T10:51:49.383Z,5.27
2022-10-03T10:54:51.244Z,8.57
2022-10-03T10:57:46.188Z,7.10
2022-10-03T11:00:22.524Z,5.73
2022-10-03T11:03:53.114Z,7.43
2022-10-03T11:06:39.078Z,7.40
2022-10-03T11:09:31.489Z,4.73
2022-10-03T11:12:02.074Z,4.00
2022-10-03T11:15:18.304Z,5.70
2022-10-03T11:17:59.526Z,6.17
2022-10-03T11:20:29.382Z,5.63
2022-10-03T11:23:35.659Z,4.67
2022-10-03T11:26:27.015Z,5.63
2022-10-03T11:29:24.979Z,5.47
2022-10-03T11:32:29.501Z,4.90
2022-10-03T11:35:21.371Z,5.80
2022-10-03T11:38:13.440Z,7.53
2022-10-03T11:41:18.582Z,5.50
2022-10-03T11:44:08.211Z,9.93
2022-10-03T11:46:59.995Z,5.17
2022-10-03T11:49:45.451Z,3.97
2022-10-03T11:52:30.618Z,3.03
2022-10-03T11:55:18.964Z,4.50
2022-10-03T11:58:11.241Z,6.70
2022-10-03T12:00:42.371Z,4.87
2022-10-03T12:03:20.375Z,4.53
2022-10-03T12:06:13.957Z,5.93
2022-10-03T12:08:54.983Z,7.37
2022-10-03T12:11:36.667Z,6.07
2022-10-03T12:14:11.507Z,3.87
2022-10-03T12:17:01.277Z,8.87
2022-10-03T12:19:49.866Z,3.90
2022-10-03T12:22:22.891Z,8.97
2022-10-03T12:24:50.511Z,8.73
2022-10-03T12:27:31.114Z,6.33
2022-10-03T12:30:02.700Z,4.23
2022-10-03T12:32:29.455Z,6.73
2022-10-03T12:34:59.028Z,8.87
2022-10-03T12:37:49.990Z,5.50
2022-10-03T12:40:20.337Z,6.43
2022-10-03T12:43:15.123Z,8.97
2022-10-03T12:45:50.631Z,6.87
2022-10-03T12:48:42.923Z,8.93
2022-10-03T12:51:32.118Z,5.87
2022-10-03T12:54:08.394Z,12.27
2022-10-03T12:56:42.746Z,8.47
2022-10-03T12:59:28.642Z,6.53
2022-10-03T13:02:26.433Z,6.77
2022-10-03T13:05:02.133Z,4.03
2022-10-03T13:07:53.403Z,4.90
2022-10-03T13:10:20.168Z,8.67
2022-10-03T13:13:23.962Z,6.87
2022-10-03T13:15:53.771Z,7.33
2022-10-03T13:18:38.788Z,5.87
2022-10-03T13:21:45.426Z,8.53
2022-10-03T13:24:36.661Z,9.73
2022-10-03T13:27:08.873Z,5.53
2022-10-03T13:29:42.103Z,4.17
2022-10-03T13:32:17.469Z,5.87
2022-10-03T13:34:47.434Z,7.87
2022-10-03T13:37:57.307Z,5.57
2022-10-03T13:40:25.927Z,7.30
2022-10-03T13:42:54.113Z,8.40
2022-10-03T13:45:25.582Z,5.93
2022-10-03T13:48:14.039Z,6.13
2022-10-03T13:50:56.146Z,6.53
2022-10-03T13:53:43.320Z,4.20
2022-10-03T13:56:33.726Z,6.43
2022-10-03T13:59:27.289Z,7.47
2022-10-03T14:02:21.291Z,8.13
2022-10-03T14:05:13.169Z,5.07
2022-10-03T14:07:51.773Z,7.13
2022-10-03T14:10:36.740Z,6.17
2022-10-03T14:13:16.263Z,7.03
2022-10-03T14:15:49.156Z,5.37
2022-10-03T14:18:22.340Z,6.67
2022-10-03T14:21:20.362Z,5.77
2022-10-03T14:24:13.381Z,5.73
2022-10-03T14:27:14.415Z,7.20
2022-10-03T14:29:56.840Z,4.17
2022-10-03T14:32:51.446Z,6.30
2022-10-03T14:35:46.139Z,5.30
2022-10-03T14:39:00.723Z,7.20
2022-10-03T14:41:52.249Z,7.17
2022-10-03T14:44:29.350Z,5.43
2022-10-03T14:47:00.608Z,5.13
2022-10-03T14:49:54.844Z,4.27
2022-10-03T14:52:38.348Z,8.07
2022-10-03T14:55:30.380Z,7.77
2022-10-03T14:58:11.146Z,2.90
2022-10-03T15:00:55.458Z,4.50
2022-10-03T15:03:30.515Z,5.23
2022-10-03T15:05:57.510Z,4.67
2022-10-03T15:08:29.357Z,5.13
2022-10-03T15:10:56.844Z,8.67
2022-10-03T15:13:25.161Z,8.70
2022-10-03T15:15:55.389Z,6.83
2022-10-03T15:18:24.738Z,6.33
2022-10-03T15:20:57.249Z,10.07
2022-10-03T15:23:41.127Z,13.93
2022-10-03T15:26:16.170Z,4.10
2022-10-03T15:28:48.672Z,4.30
2022-10-03T15:31:43.228Z,5.47
2022-10-03T15:34:33.057Z,6.17
2022-10-03T15:37:18.207Z,4.27
2022-10-03T15:39:48.245Z,5.97
2022-10-03T15:42:18.030Z,7.87
2022-10-03T15:44:51.642Z,5.53
2022-10-03T15:47:23.015Z,5.50
2022-10-03T15:49:55.977Z,6.87
2022-10-03T15:52:46.583Z,3.77
2022-10-03T15:55:26.992Z,5.83
2022-10-03T15:58:00.443Z,4.80
2022-10-03T16:00:31.103Z,7.83
2022-10-03T16:03:39.461Z,6.20
2022-10-03T16:06:06.330Z,7.77
2022-10-03T16:08:41.842Z,6.37
2022-10-03T16:11:48.460Z,6.00
2022-10-03T16:14:23.568Z,12.43
2022-10-03T16:16:59.681Z,5.43
2022-10-03T16:19:42.551Z,8.47
2022-10-03T16:22:24.919Z,8.97
2022-10-03T16:25:14.149Z,4.63
2022-10-03T16:27:53.181Z,3.67
2022-10-03T16:30:36.279Z,3.47
2022-10-03T16:33:40.637Z,4.23
2022-10-03T16:36:16.544Z,6.10
2022-10-03T16:39:01.618Z,4.20
2022-10-03T16:41:31.666Z,8.10
2022-10-03T16:44:04.880Z,4.40
2022-10-03T16:46:38.326Z,7.67
2022-10-03T16:49:41.891Z,8.93
2022-10-03T16:52:12.466Z,8.23
2022-10-03T16:54:41.334Z,6.27
2022-10-03T16:57:28.300Z,6.13
2022-10-03T16:59:56.839Z,10.37
2022-10-03T17:02:28.383Z,8.03
2022-10-03T17:05:07.839Z,4.87
2022-10-03T17:07:42.052Z,6.73
2022-10-03T17:10:38.116Z,8.13
2022-10-03T17:13:32.517Z,5.20
2022-10-03T17:16:13.796Z,8.23
2022-10-03T17:19:10.211Z,7.03
2022-10-03T17:21:40.953Z,11.70
2022-10-03T17:24:34.426Z,12.50
2022-10-03T17:27:08.451Z,7.00
2022-10-03T17:29:46.819Z,8.47
2022-10-03T17:32:36.263Z,8.47
2022-10-03T17:35:22.690Z,6.37
2022-10-03T17:38:30.817Z,6.70
2022-10-03T17:41:28.075Z,6.53
2022-10-03T17:44:10.001Z,6.30
2022-10-03T17:46:55.055Z,8.57
2022-10-03T17:49:41.986Z,6.23
2022-10-03T17:52:19.707Z,6.57
2022-10-03T17:55:08.054Z,7.33
2022-10-03T17:57:38.568Z,7.77
2022-10-03T18:00:19.041Z,7.47
2022-10-03T18:02:56.372Z,8.57
2022-10-03T18:05:45.895Z,15.57
2022-10-03T18:08:26.526Z,8.93
2022-10-03T18:10:56.086Z,11.43
2022-10-03T18:13:28.731Z,11.53
2022-10-03T18:16:16.744Z,19.57
2022-10-03T18:19:11.781Z,12.00
2022-10-03T18:21:41.703Z,11.43
2022-10-03T18:24:38.899Z,10.57
2022-10-03T18:27:13.421Z,10.57
2022-10-03T18:30:17.689Z,12.77
2022-10-03T18:32:46.643Z,14.53
2022-10-03T18:35:20.215Z,13.43
2022-10-03T18:37:47.017Z,10.23
2022-10-03T18:40:16.598Z,10.73
2022-10-03T18:42:50.431Z,12.17
2022-10-03T18:45:32.985Z,10.33
2022-10-03T18:48:09.839Z,10.97
2022-10-03T18:50:40.593Z,14.67
2022-10-03T18:53:31.981Z,16.30
2022-10-03T18:56:17.563Z,9.80
2022-10-03T18:58:52.213Z,14.60
2022-10-03T19:01:30.721Z,11.17
2022-10-03T19:04:04.600Z,10.00
2022-10-03T19:06:37.233Z,12.27
2022-10-03T19:09:16.105Z,9.20
2022-10-03T19:11:53.088Z,17.07
2022-10-03T19:14:41.252Z,10.50
2022-10-03T19:17:44.124Z,12.43
2022-10-03T19:20:25.547Z,12.17
2022-10-03T19:23:05.195Z,11.17
2022-10-03T19:25:37.374Z,9.77
2022-10-03T19:28:30.385Z,11.00
2022-10-03T19:31:07.744Z,7.50
2022-10-03T19:33:52.110Z,8.17
2022-10-03T19:36:29.783Z,10.43
2022-10-03T19:38:58.994Z,9.80
2022-10-03T19:41:35.420Z,10.13
2022-10-03T19:44:05.299Z,12.27
2022-10-03T19:46:47.200Z,9.20
2022-10-03T19:49:23.945Z,9.67
2022-10-03T19:51:51.432Z,9.10
2022-10-03T19:54:35.066Z,16.17
2022-10-03T19:57:05.542Z,8.97
2022-10-03T19:59:51.590Z,9.23
2022-10-03T20:02:24.193Z,13.20
2022-10-03T20:04:53.824Z,10.07
2022-10-03T20:07:34.796Z,12.90
2022-10-03T20:10:25.385Z,8.27
2022-10-03T20:12:52.874Z,9.53
2022-10-03T20:15:25.346Z,6.87
2022-10-03T20:17:59.261Z,12.17
2022-10-03T20:20:28.941Z,9.93
2022-10-03T20:23:02.024Z,10.43
2022-10-03T20:25:36.419Z,7.87
2022-10-03T20:28:08.283Z,13.50
2022-10-03T20:30:35.787Z,8.27
2022-10-03T20:33:04.576Z,9.27
2022-10-03T20:35:36.919Z,12.60
2022-10-03T20:38:23.303Z,11.77
2022-10-03T20:41:05.627Z,11.03
2022-10-03T20:43:54.569Z,12.50
2022-10-03T20:46:31.187Z,12.63
2022-10-03T20:49:10.291Z,8.87
2022-10-03T20:51:54.010Z,10.30
2022-10-03T20:54:23.826Z,8.90
2022-10-03T20:57:04.792Z,9.47
2022-10-03T20:59:48.796Z,11.87
2022-10-03T21:02:36.219Z,18.63
2022-10-03T21:05:05.824Z,16.30
2022-10-03T21:07:53.094Z,26.00
2022-10-03T21:10:31.049Z,30.80
2022-10-03T21:13:13.507Z,25.80
2022-10-03T21:15:53.600Z,16.13
2022-10-03T21:18:32.347Z,14.77
2022-10-03T21:21:16.056Z,16.37
2022-10-03T21:24:11.308Z,12.23
2022-10-03T21:26:43.991Z,12.00
2022-10-03T21:29:35.952Z,9.80
2022-10-03T21:32:18.109Z,11.17
2022-10-03T21:35:18.880Z,10.00
2022-10-03T21:38:09.124Z,11.77
2022-10-03T21:40:49.058Z,19.10
2022-10-03T21:43:49.333Z,14.63
2022-10-03T21:46:27.392Z,5.80
2022-10-03T21:49:18.394Z,6.23
2022-10-03T21:51:48.735Z,6.47
2022-10-03T21:55:03.623Z,7.27
2022-10-03T21:58:17.258Z,6.07
2022-10-03T22:00:56.353Z,9.57
2022-10-03T22:03:53.444Z,7.33
2022-10-03T22:06:37.351Z,7.80
2022-10-03T22:09:11.623Z,7.90
2022-10-03T22:11:46.419Z,8.07
2022-10-03T22:14:19.549Z,7.47
2022-10-03T22:17:18.589Z,9.70
2022-10-03T22:19:52.957Z,9.03
2022-10-03T22:22:45.148Z,6.10
2022-10-03T22:25:32.282Z,7.97
2022-10-03T22:28:36.864Z,9.07
2022-10-03T22:31:09.723Z,6.57
2022-10-03T22:34:15.590Z,7.33
2022-10-03T22:36:43.545Z,8.90
2022-10-03T22:39:16.384Z,7.13
2022-10-03T22:41:46.785Z,6.37
2022-10-03T22:44:16.112Z,6.57
2022-10-03T22:46:46.839Z,5.47
2022-10-03T22:49:17.073Z,5.53
2022-10-03T22:51:46.388Z,6.73
2022-10-03T22:54:18.350Z,7.27
2022-10-03T22:56:55.167Z,5.67
2022-10-03T22:59:39.147Z,7.53
2022-10-03T23:02:09.363Z,8.27
2022-10-03T23:04:59.768Z,5.03
2022-10-03T23:07:32.588Z,5.57
2022-10-03T23:10:13.761Z,5.27
2022-10-03T23:12:46.799Z,6.53
2022-10-03T23:15:19.986Z,5.03
2022-10-03T23:18:06.406Z,5.80
2022-10-03T23:20:57.358Z,9.23
2022-10-03T23:23:49.633Z,6.80
2022-10-03T23:26:38.012Z,11.20
2022-10-03T23:29:18.798Z,7.10
2022-10-03T23:32:05.291Z,6.20
2022-10-03T23:34:37.510Z,12.13
2022-10-03T23:37:04.748Z,11.00
2022-10-03T23:39:34.687Z,7.40
2022-10-03T23:42:20.168Z,9.17
2022-10-03T23:44:50.710Z,7.03
2022-10-03T23:47:21.370Z,8.67
2022-10-03T23:49:49.820Z,5.97
2022-10-03T23:52:26.138Z,4.90
2022-10-03T23:55:01.814Z,5.60
2022-10-03T23:57:35.630Z,4.70
